CA-0013 weather

CLOSED RCAF Pennfield Ridge
Pennfield, New Brunswick, Canada

Public forecast

Using degrees Celsius for public forecast. Weather courtesy of forecast.io.

Closest aviation weather report (METAR) to RCAF Pennfield Ridge

Closest report is Saint John Airport, 35.8 nm (66.3 km) ENE. Retrieved 2020/02/28 08:00 UTC (1 hour ago):

CYSJ 280800Z 25011G18KT 15SM FEW029 M03/M07 A2941 RMK SC2 SLP965

Closest aviation forecast (TAF) to RCAF Pennfield Ridge

Closest forecast is Saint John Airport, 35.8 nm (66.3 km) ENE. Retrieved 2020/02/28 06:39 UTC (2 hours ago):

TAF TAF CYSJ 280538Z 2806/2818 25015G25KT P6SM SCT015 OVC030 TEMPO 2806/2816 OVC015 FM281600 23012G22KT P6SM -SHSN BKN030 RMK NXT FCST BY 281200Z